EIN86T EINN-EGJJ
Flight info
| Callsign | EIN86T |
|---|---|
| Flight time | 0h 57m |
| Altitude | 39000 |
| Route | LUNIG3B LUNIG DCT NORLA DCT FONZU DCT ABBEW/N0352F230 N90 ENHEL N862 SKERY |
| Aircraft | A20N/M-SDE2E3FGHIRWXY/LB1 |
Departure
| Time | 2026-05-07 19:17 |
|---|---|
| Airport | Shannon Airport (EINN) |
Arrival
| Time | 2026-05-07 20:15 |
|---|---|
| Airport | Jersey Airport (EGJJ) |
| Time | Latitude | Longitude | Altitude | Speed | Heading |
|---|---|---|---|---|---|
| 2026-05-07 18:34 | 52.69381 | -8.92283 | 43 ft | 0 kts | 183° |
| 2026-05-07 19:05 | 52.69387 | -8.92282 | 43 ft | 3 kts | 183° |
| 2026-05-07 19:06 | 52.69410 | -8.92280 | 42 ft | 3 kts | 183° |
| 2026-05-07 19:06 | 52.69458 | -8.92276 | 39 ft | 3 kts | 183° |
| 2026-05-07 19:06 | 52.69481 | -8.92273 | 41 ft | 3 kts | 183° |
| 2026-05-07 19:07 | 52.69504 | -8.92277 | 42 ft | 3 kts | 144° |
| 2026-05-07 19:07 | 52.69515 | -8.92296 | 39 ft | 0 kts | 120° |
| 2026-05-07 19:09 | 52.69511 | -8.92280 | 40 ft | 4 kts | 114° |
| 2026-05-07 19:09 | 52.69494 | -8.92216 | 39 ft | 8 kts | 112° |
| 2026-05-07 19:09 | 52.69480 | -8.92110 | 39 ft | 11 kts | 114° |
| 2026-05-07 19:09 | 52.69453 | -8.91966 | 38 ft | 15 kts | 103° |
| 2026-05-07 19:10 | 52.69421 | -8.91814 | 38 ft | 13 kts | 124° |
| 2026-05-07 19:10 | 52.69349 | -8.91749 | 40 ft | 10 kts | 164° |
| 2026-05-07 19:10 | 52.69290 | -8.91672 | 40 ft | 12 kts | 129° |
| 2026-05-07 19:10 | 52.69255 | -8.91550 | 40 ft | 11 kts | 64° |
| 2026-05-07 19:11 | 52.69334 | -8.91486 | 37 ft | 15 kts | 19° |
| 2026-05-07 19:11 | 52.69441 | -8.91426 | 38 ft | 17 kts | 18° |
| 2026-05-07 19:11 | 52.69539 | -8.91374 | 37 ft | 15 kts | 18° |
| 2026-05-07 19:11 | 52.69646 | -8.91314 | 36 ft | 17 kts | 19° |
| 2026-05-07 19:12 | 52.69757 | -8.91252 | 35 ft | 16 kts | 18° |
| 2026-05-07 19:12 | 52.69865 | -8.91193 | 34 ft | 18 kts | 19° |
| 2026-05-07 19:12 | 52.69984 | -8.91125 | 31 ft | 16 kts | 19° |
| 2026-05-07 19:12 | 52.70098 | -8.91064 | 31 ft | 14 kts | 18° |
| 2026-05-07 19:13 | 52.70179 | -8.91019 | 31 ft | 14 kts | 19° |
| 2026-05-07 19:13 | 52.70286 | -8.90960 | 30 ft | 18 kts | 18° |
| 2026-05-07 19:13 | 52.70407 | -8.90894 | 28 ft | 19 kts | 19° |
| 2026-05-07 19:13 | 52.70532 | -8.90824 | 27 ft | 19 kts | 18° |
| 2026-05-07 19:14 | 52.70656 | -8.90756 | 29 ft | 20 kts | 18° |
| 2026-05-07 19:14 | 52.70785 | -8.90683 | 26 ft | 20 kts | 18° |
| 2026-05-07 19:14 | 52.70905 | -8.90707 | 26 ft | 17 kts | 329° |
| 2026-05-07 19:14 | 52.70964 | -8.90849 | 25 ft | 15 kts | 249° |
| 2026-05-07 19:15 | 52.70950 | -8.90883 | 27 ft | 0 kts | 233° |
| 2026-05-07 19:16 | 52.70949 | -8.90885 | 27 ft | 2 kts | 233° |
| 2026-05-07 19:17 | 52.70817 | -8.91165 | 27 ft | 75 kts | 232° |
| 2026-05-07 19:17 | 52.70326 | -8.92203 | 43 ft | 150 kts | 232° |
| 2026-05-07 19:17 | 52.69676 | -8.93579 | 823 ft | 152 kts | 232° |
| 2026-05-07 19:17 | 52.69013 | -8.94968 | 1817 ft | 158 kts | 233° |
| 2026-05-07 19:18 | 52.68324 | -8.96482 | 2549 ft | 172 kts | 231° |
| 2026-05-07 19:18 | 52.67344 | -8.97673 | 3353 ft | 179 kts | 205° |
| 2026-05-07 19:18 | 52.66107 | -8.97962 | 4203 ft | 186 kts | 174° |
| 2026-05-07 19:18 | 52.64854 | -8.97235 | 4797 ft | 195 kts | 160° |
| 2026-05-07 19:19 | 52.63622 | -8.96315 | 4971 ft | 194 kts | 159° |
| 2026-05-07 19:19 | 52.62399 | -8.95375 | 5000 ft | 194 kts | 158° |
| 2026-05-07 19:19 | 52.61173 | -8.94438 | 4999 ft | 194 kts | 159° |
| 2026-05-07 19:19 | 52.59954 | -8.93472 | 5000 ft | 197 kts | 151° |
| 2026-05-07 19:20 | 52.58998 | -8.91855 | 5001 ft | 202 kts | 122° |
| 2026-05-07 19:20 | 52.58359 | -8.89692 | 5017 ft | 227 kts | 118° |
| 2026-05-07 19:20 | 52.57625 | -8.87191 | 5010 ft | 261 kts | 118° |
| 2026-05-07 19:20 | 52.56801 | -8.84397 | 5344 ft | 279 kts | 118° |
| 2026-05-07 19:21 | 52.55962 | -8.81553 | 6554 ft | 274 kts | 118° |
| 2026-05-07 19:21 | 52.55124 | -8.78727 | 7587 ft | 278 kts | 118° |
| 2026-05-07 19:21 | 52.54267 | -8.75847 | 8568 ft | 283 kts | 118° |
| 2026-05-07 19:21 | 52.53395 | -8.72928 | 9567 ft | 287 kts | 118° |
| 2026-05-07 19:22 | 52.52508 | -8.69962 | 10499 ft | 292 kts | 118° |
| 2026-05-07 19:22 | 52.51604 | -8.66940 | 11358 ft | 298 kts | 118° |
| 2026-05-07 19:22 | 52.50684 | -8.63866 | 12233 ft | 303 kts | 119° |
| 2026-05-07 19:22 | 52.49758 | -8.60780 | 13103 ft | 308 kts | 119° |
| 2026-05-07 19:23 | 52.48805 | -8.57606 | 13941 ft | 313 kts | 120° |
| 2026-05-07 19:23 | 52.47836 | -8.54387 | 14738 ft | 316 kts | 120° |
| 2026-05-07 19:23 | 52.46859 | -8.51140 | 15539 ft | 319 kts | 120° |
| 2026-05-07 19:23 | 52.45871 | -8.47864 | 16335 ft | 322 kts | 120° |
| 2026-05-07 19:24 | 52.44869 | -8.44548 | 17121 ft | 326 kts | 120° |
| 2026-05-07 19:24 | 52.43858 | -8.41206 | 17908 ft | 329 kts | 120° |
| 2026-05-07 19:24 | 52.42834 | -8.37823 | 18627 ft | 333 kts | 120° |
| 2026-05-07 19:24 | 52.41802 | -8.34422 | 19309 ft | 336 kts | 120° |
| 2026-05-07 19:25 | 52.40692 | -8.30949 | 19573 ft | 353 kts | 122° |
| 2026-05-07 19:25 | 52.39481 | -8.27325 | 19753 ft | 372 kts | 122° |
| 2026-05-07 19:25 | 52.38208 | -8.23529 | 19971 ft | 388 kts | 122° |
| 2026-05-07 19:25 | 52.36912 | -8.19633 | 20531 ft | 392 kts | 121° |
| 2026-05-07 19:26 | 52.35609 | -8.15693 | 21218 ft | 395 kts | 121° |
| 2026-05-07 19:26 | 52.34299 | -8.11724 | 21837 ft | 399 kts | 121° |
| 2026-05-07 19:26 | 52.32974 | -8.07714 | 22498 ft | 402 kts | 122° |
| 2026-05-07 19:26 | 52.31639 | -8.03682 | 23117 ft | 405 kts | 122° |
| 2026-05-07 19:27 | 52.30289 | -7.99616 | 23698 ft | 409 kts | 122° |
| 2026-05-07 19:27 | 52.28924 | -7.95520 | 24206 ft | 412 kts | 122° |
| 2026-05-07 19:27 | 52.27550 | -7.91400 | 24711 ft | 415 kts | 121° |
| 2026-05-07 19:27 | 52.26160 | -7.87245 | 25197 ft | 419 kts | 121° |
| 2026-05-07 19:28 | 52.24778 | -7.83118 | 25653 ft | 422 kts | 121° |
| 2026-05-07 19:28 | 52.23367 | -7.78912 | 26145 ft | 424 kts | 121° |
| 2026-05-07 19:28 | 52.21943 | -7.74674 | 26616 ft | 427 kts | 121° |
| 2026-05-07 19:28 | 52.20508 | -7.70409 | 27076 ft | 430 kts | 121° |
| 2026-05-07 19:29 | 52.19064 | -7.66125 | 27525 ft | 433 kts | 121° |
| 2026-05-07 19:29 | 52.17606 | -7.61808 | 27968 ft | 436 kts | 121° |
| 2026-05-07 19:29 | 52.16141 | -7.57477 | 28396 ft | 438 kts | 121° |
| 2026-05-07 19:29 | 52.14665 | -7.53118 | 28794 ft | 441 kts | 121° |
| 2026-05-07 19:30 | 52.13177 | -7.48733 | 29191 ft | 444 kts | 121° |
| 2026-05-07 19:30 | 52.11679 | -7.44326 | 29583 ft | 446 kts | 121° |
| 2026-05-07 19:30 | 52.10465 | -7.40761 | 29896 ft | 448 kts | 121° |
| 2026-05-07 19:30 | 52.08950 | -7.36316 | 30245 ft | 450 kts | 121° |
| 2026-05-07 19:31 | 52.07426 | -7.31857 | 30557 ft | 453 kts | 121° |
| 2026-05-07 19:31 | 52.05891 | -7.27371 | 30862 ft | 456 kts | 121° |
| 2026-05-07 19:31 | 52.04348 | -7.22868 | 30975 ft | 456 kts | 121° |
| 2026-05-07 19:31 | 52.02807 | -7.18379 | 30987 ft | 455 kts | 121° |
| 2026-05-07 19:32 | 51.99724 | -7.09426 | 30989 ft | 454 kts | 122° |
| 2026-05-07 19:32 | 51.96638 | -7.00496 | 31000 ft | 453 kts | 122° |
| 2026-05-07 19:33 | 51.93551 | -6.91595 | 31001 ft | 453 kts | 122° |
| 2026-05-07 19:33 | 51.90456 | -6.82703 | 31003 ft | 452 kts | 122° |
| 2026-05-07 19:34 | 51.87362 | -6.73845 | 30999 ft | 452 kts | 122° |
| 2026-05-07 19:34 | 51.84267 | -6.65015 | 31003 ft | 451 kts | 122° |
| 2026-05-07 19:35 | 51.81170 | -6.56212 | 30997 ft | 450 kts | 122° |
| 2026-05-07 19:35 | 51.78070 | -6.47429 | 30988 ft | 450 kts | 122° |
| 2026-05-07 19:36 | 51.74968 | -6.38674 | 30993 ft | 449 kts | 122° |
| 2026-05-07 19:36 | 51.71862 | -6.29935 | 30993 ft | 449 kts | 122° |
| 2026-05-07 19:37 | 51.68752 | -6.21217 | 30996 ft | 449 kts | 122° |
| 2026-05-07 19:37 | 51.65639 | -6.12518 | 30996 ft | 448 kts | 123° |
| 2026-05-07 19:38 | 51.62537 | -6.03882 | 30991 ft | 448 kts | 123° |
| 2026-05-07 19:38 | 51.59406 | -5.95193 | 31006 ft | 449 kts | 123° |
| 2026-05-07 19:39 | 51.56270 | -5.86521 | 31007 ft | 449 kts | 123° |
| 2026-05-07 19:39 | 51.53105 | -5.77798 | 31003 ft | 449 kts | 123° |
| 2026-05-07 19:40 | 51.49972 | -5.69194 | 31007 ft | 449 kts | 123° |
| 2026-05-07 19:40 | 51.46812 | -5.60545 | 31009 ft | 450 kts | 123° |
| 2026-05-07 19:41 | 51.43621 | -5.51839 | 31016 ft | 450 kts | 123° |
| 2026-05-07 19:41 | 51.40465 | -5.43259 | 31017 ft | 450 kts | 123° |
| 2026-05-07 19:42 | 51.37281 | -5.34633 | 31021 ft | 450 kts | 123° |
| 2026-05-07 19:42 | 51.34093 | -5.26022 | 31021 ft | 450 kts | 123° |
| 2026-05-07 19:43 | 51.30898 | -5.17423 | 31019 ft | 450 kts | 123° |
| 2026-05-07 19:43 | 51.27695 | -5.08832 | 31016 ft | 450 kts | 123° |
| 2026-05-07 19:44 | 51.24487 | -5.00256 | 31014 ft | 450 kts | 123° |
| 2026-05-07 19:44 | 51.21273 | -4.91693 | 31012 ft | 450 kts | 123° |
| 2026-05-07 19:45 | 51.18055 | -4.83146 | 31012 ft | 450 kts | 123° |
| 2026-05-07 19:45 | 51.14830 | -4.74611 | 31011 ft | 450 kts | 124° |
| 2026-05-07 19:46 | 51.11598 | -4.66085 | 31014 ft | 450 kts | 124° |
| 2026-05-07 19:46 | 51.08361 | -4.57573 | 31012 ft | 450 kts | 124° |
| 2026-05-07 19:47 | 51.05117 | -4.49074 | 31017 ft | 450 kts | 124° |
| 2026-05-07 19:47 | 51.01867 | -4.40584 | 31018 ft | 450 kts | 124° |
| 2026-05-07 19:48 | 50.98611 | -4.32108 | 31014 ft | 450 kts | 124° |
| 2026-05-07 19:48 | 50.95349 | -4.23645 | 31020 ft | 450 kts | 124° |
| 2026-05-07 19:49 | 50.92102 | -4.15246 | 31018 ft | 450 kts | 124° |
| 2026-05-07 19:49 | 50.88829 | -4.06807 | 31024 ft | 450 kts | 124° |
| 2026-05-07 19:50 | 50.85548 | -3.98364 | 31028 ft | 450 kts | 124° |
| 2026-05-07 19:50 | 50.81962 | -3.90295 | 31017 ft | 447 kts | 133° |
| 2026-05-07 19:51 | 50.77490 | -3.83562 | 31027 ft | 443 kts | 143° |
| 2026-05-07 19:51 | 50.72764 | -3.77302 | 31024 ft | 444 kts | 142° |
| 2026-05-07 19:52 | 50.68047 | -3.71020 | 31026 ft | 444 kts | 142° |
| 2026-05-07 19:52 | 50.63323 | -3.64751 | 31019 ft | 444 kts | 142° |
| 2026-05-07 19:53 | 50.58596 | -3.58500 | 31023 ft | 444 kts | 142° |
| 2026-05-07 19:53 | 50.53865 | -3.52260 | 31021 ft | 444 kts | 142° |
| 2026-05-07 19:54 | 50.48926 | -3.46501 | 31019 ft | 441 kts | 152° |
| 2026-05-07 19:54 | 50.43507 | -3.42052 | 31015 ft | 440 kts | 155° |
| 2026-05-07 19:55 | 50.38069 | -3.37663 | 31014 ft | 440 kts | 155° |
| 2026-05-07 19:55 | 50.32630 | -3.33271 | 31014 ft | 440 kts | 155° |
| 2026-05-07 19:56 | 50.28108 | -3.29627 | 31011 ft | 440 kts | 155° |
| 2026-05-07 19:56 | 50.22555 | -3.25637 | 31007 ft | 438 kts | 163° |
| 2026-05-07 19:57 | 50.16691 | -3.23280 | 30628 ft | 434 kts | 169° |
| 2026-05-07 19:57 | 50.13740 | -3.22234 | 29736 ft | 438 kts | 169° |
| 2026-05-07 19:57 | 50.09765 | -3.20817 | 28190 ft | 445 kts | 169° |
| 2026-05-07 19:58 | 50.07731 | -3.20088 | 27662 ft | 443 kts | 169° |
| 2026-05-07 19:58 | 50.04756 | -3.19018 | 27159 ft | 433 kts | 169° |
| 2026-05-07 19:58 | 50.01881 | -3.17820 | 26709 ft | 425 kts | 163° |
| 2026-05-07 19:58 | 49.99155 | -3.16111 | 26137 ft | 421 kts | 156° |
| 2026-05-07 19:59 | 49.96612 | -3.13908 | 25563 ft | 417 kts | 149° |
| 2026-05-07 19:59 | 49.94251 | -3.11433 | 25012 ft | 413 kts | 148° |
| 2026-05-07 19:59 | 49.91872 | -3.08975 | 24451 ft | 408 kts | 149° |
| 2026-05-07 19:59 | 49.89510 | -3.06564 | 23838 ft | 405 kts | 149° |
| 2026-05-07 20:00 | 49.87169 | -3.04183 | 23294 ft | 400 kts | 149° |
| 2026-05-07 20:00 | 49.84854 | -3.01831 | 22720 ft | 395 kts | 149° |
| 2026-05-07 20:00 | 49.82578 | -2.99518 | 22172 ft | 389 kts | 149° |
| 2026-05-07 20:00 | 49.80329 | -2.97235 | 21605 ft | 384 kts | 149° |
| 2026-05-07 20:01 | 49.78106 | -2.94979 | 21081 ft | 380 kts | 149° |
| 2026-05-07 20:01 | 49.75913 | -2.92756 | 20527 ft | 376 kts | 149° |
| 2026-05-07 20:01 | 49.73733 | -2.90549 | 19968 ft | 372 kts | 149° |
| 2026-05-07 20:01 | 49.71576 | -2.88368 | 19397 ft | 370 kts | 149° |
| 2026-05-07 20:02 | 49.69425 | -2.86195 | 18845 ft | 367 kts | 149° |
| 2026-05-07 20:02 | 49.67286 | -2.84037 | 18281 ft | 366 kts | 149° |
| 2026-05-07 20:02 | 49.65165 | -2.81898 | 17698 ft | 362 kts | 149° |
| 2026-05-07 20:02 | 49.63062 | -2.79780 | 17127 ft | 359 kts | 149° |
| 2026-05-07 20:03 | 49.60978 | -2.77682 | 16567 ft | 356 kts | 149° |
| 2026-05-07 20:03 | 49.58911 | -2.75604 | 16018 ft | 354 kts | 149° |
| 2026-05-07 20:03 | 49.56856 | -2.73540 | 15484 ft | 351 kts | 149° |
| 2026-05-07 20:03 | 49.54813 | -2.71491 | 14900 ft | 350 kts | 149° |
| 2026-05-07 20:04 | 49.52785 | -2.69459 | 14439 ft | 346 kts | 149° |
| 2026-05-07 20:04 | 49.50767 | -2.67439 | 13840 ft | 347 kts | 149° |
| 2026-05-07 20:04 | 49.48759 | -2.65431 | 13387 ft | 341 kts | 149° |
| 2026-05-07 20:04 | 49.46774 | -2.63448 | 12792 ft | 340 kts | 149° |
| 2026-05-07 20:05 | 49.44809 | -2.61486 | 12363 ft | 335 kts | 149° |
| 2026-05-07 20:05 | 49.42799 | -2.59721 | 11865 ft | 330 kts | 156° |
| 2026-05-07 20:05 | 49.40720 | -2.58264 | 11383 ft | 327 kts | 157° |
| 2026-05-07 20:05 | 49.38664 | -2.56818 | 10888 ft | 324 kts | 157° |
| 2026-05-07 20:06 | 49.36627 | -2.55380 | 10430 ft | 320 kts | 157° |
| 2026-05-07 20:06 | 49.34639 | -2.53973 | 10241 ft | 308 kts | 157° |
| 2026-05-07 20:06 | 49.32740 | -2.52630 | 10117 ft | 294 kts | 157° |
| 2026-05-07 20:06 | 49.30926 | -2.51348 | 9998 ft | 281 kts | 157° |
| 2026-05-07 20:07 | 49.29309 | -2.49715 | 9624 ft | 280 kts | 138° |
| 2026-05-07 20:07 | 49.27958 | -2.47565 | 9176 ft | 280 kts | 136° |
| 2026-05-07 20:07 | 49.26631 | -2.45396 | 8775 ft | 277 kts | 136° |
| 2026-05-07 20:07 | 49.25373 | -2.43331 | 8520 ft | 263 kts | 136° |
| 2026-05-07 20:08 | 49.24134 | -2.41308 | 7939 ft | 261 kts | 136° |
| 2026-05-07 20:08 | 49.22878 | -2.39276 | 7250 ft | 265 kts | 136° |
| 2026-05-07 20:08 | 49.21600 | -2.37215 | 6559 ft | 268 kts | 136° |
| 2026-05-07 20:08 | 49.20309 | -2.35135 | 5839 ft | 271 kts | 135° |
| 2026-05-07 20:09 | 49.18995 | -2.33053 | 5120 ft | 272 kts | 140° |
| 2026-05-07 20:09 | 49.17361 | -2.31670 | 4422 ft | 269 kts | 167° |
| 2026-05-07 20:09 | 49.15541 | -2.31646 | 3961 ft | 260 kts | 194° |
| 2026-05-07 20:10 | 49.13088 | -2.35155 | 3235 ft | 246 kts | 252° |
| 2026-05-07 20:10 | 49.13058 | -2.37707 | 2967 ft | 240 kts | 283° |
| 2026-05-07 20:10 | 49.13879 | -2.39860 | 2705 ft | 234 kts | 316° |
| 2026-05-07 20:10 | 49.15268 | -2.40999 | 2455 ft | 225 kts | 349° |
| 2026-05-07 20:11 | 49.16764 | -2.40850 | 2189 ft | 212 kts | 24° |
| 2026-05-07 20:11 | 49.17777 | -2.40089 | 2113 ft | 195 kts | 34° |
| 2026-05-07 20:11 | 49.18733 | -2.38843 | 2053 ft | 168 kts | 60° |
| 2026-05-07 20:11 | 49.19197 | -2.37351 | 2052 ft | 153 kts | 78° |
| 2026-05-07 20:12 | 49.19438 | -2.35672 | 2049 ft | 161 kts | 85° |
| 2026-05-07 20:12 | 49.19587 | -2.34015 | 2056 ft | 163 kts | 88° |
| 2026-05-07 20:12 | 49.19733 | -2.32280 | 2051 ft | 163 kts | 87° |
| 2026-05-07 20:12 | 49.19873 | -2.30583 | 2058 ft | 161 kts | 87° |
| 2026-05-07 20:13 | 49.20017 | -2.28892 | 1902 ft | 157 kts | 87° |
| 2026-05-07 20:13 | 49.20154 | -2.27364 | 1762 ft | 135 kts | 86° |
| 2026-05-07 20:13 | 49.20293 | -2.25933 | 1295 ft | 138 kts | 86° |
| 2026-05-07 20:13 | 49.20403 | -2.24532 | 966 ft | 128 kts | 87° |
| 2026-05-07 20:14 | 49.20486 | -2.23207 | 674 ft | 121 kts | 84° |
| 2026-05-07 20:14 | 49.20601 | -2.21988 | 467 ft | 110 kts | 83° |
| 2026-05-07 20:14 | 49.20695 | -2.20804 | 319 ft | 113 kts | 84° |
| 2026-05-07 20:14 | 49.20787 | -2.19657 | 281 ft | 93 kts | 83° |
| 2026-05-07 20:15 | 49.20805 | -2.19107 | 281 ft | 12 kts | 103° |
| 2026-05-07 20:15 | 49.20776 | -2.18956 | 282 ft | 16 kts | 110° |
| 2026-05-07 20:15 | 49.20718 | -2.18864 | 281 ft | 12 kts | 209° |
| 2026-05-07 20:15 | 49.20691 | -2.18990 | 280 ft | 14 kts | 271° |
| 2026-05-07 20:16 | 49.20680 | -2.19165 | 280 ft | 18 kts | 269° |
| 2026-05-07 20:16 | 49.20707 | -2.19375 | 280 ft | 22 kts | 282° |
| 2026-05-07 20:16 | 49.20694 | -2.19574 | 280 ft | 16 kts | 256° |
| 2026-05-07 20:16 | 49.20626 | -2.19690 | 280 ft | 13 kts | 233° |
| 2026-05-07 20:17 | 49.20579 | -2.19751 | 280 ft | 8 kts | 178° |
| 2026-05-07 20:17 | 49.20560 | -2.19750 | 280 ft | 0 kts | 179° |